createdAt,value
2022-08-29T00:00:33.817Z,14.60
2022-08-29T00:03:38.925Z,22.00
2022-08-29T00:06:44.319Z,18.80
2022-08-29T00:09:47.657Z,9.80
2022-08-29T00:12:52.671Z,21.00
2022-08-29T00:15:57.980Z,14.60
2022-08-29T00:19:04.429Z,16.60
2022-08-29T00:22:07.961Z,20.00
2022-08-29T00:25:12.756Z,10.00
2022-08-29T00:28:21.073Z,15.00
2022-08-29T00:31:26.538Z,13.75
2022-08-29T00:34:33.024Z,19.00
2022-08-29T00:37:36.595Z,10.00
2022-08-29T00:40:51.176Z,15.00
2022-08-29T00:43:55.173Z,19.50
2022-08-29T00:47:06.770Z,8.20
2022-08-29T00:50:16.479Z,16.80
2022-08-29T00:53:35.253Z,22.50
2022-08-29T00:56:43.044Z,23.80
2022-08-29T00:59:47.462Z,13.40
2022-08-29T01:02:52.294Z,16.00
2022-08-29T01:05:56.054Z,17.00
2022-08-29T01:09:00.067Z,16.00
2022-08-29T01:12:19.839Z,13.20
2022-08-29T01:15:23.351Z,13.00
2022-08-29T01:18:30.755Z,14.40
2022-08-29T01:21:45.282Z,24.20
2022-08-29T01:24:54.123Z,20.25
2022-08-29T01:28:04.613Z,15.00
2022-08-29T01:31:11.025Z,16.20
2022-08-29T01:34:17.622Z,16.40
2022-08-29T01:37:21.283Z,15.00
2022-08-29T01:40:31.939Z,15.00
2022-08-29T01:43:42.887Z,14.00
2022-08-29T01:46:47.880Z,10.60
2022-08-29T01:49:51.694Z,16.80
2022-08-29T01:52:54.943Z,19.50
2022-08-29T01:55:59.703Z,15.00
2022-08-29T01:59:04.278Z,16.00
2022-08-29T02:02:17.124Z,19.50
2022-08-29T02:05:23.580Z,15.00
2022-08-29T02:08:26.950Z,18.75
2022-08-29T02:11:32.941Z,18.40
2022-08-29T02:14:37.621Z,14.20
2022-08-29T02:17:40.923Z,17.00
2022-08-29T02:20:49.388Z,19.00
2022-08-29T02:23:54.028Z,15.00
2022-08-29T02:26:59.424Z,17.60
2022-08-29T02:30:02.694Z,16.00
2022-08-29T02:33:06.147Z,19.00
2022-08-29T02:36:10.836Z,16.50
2022-08-29T02:39:14.633Z,19.40
2022-08-29T02:42:21.712Z,11.60
2022-08-29T02:45:26.031Z,21.00
2022-08-29T02:48:29.822Z,23.50
2022-08-29T02:51:34.625Z,25.00
2022-08-29T02:54:38.131Z,23.20
2022-08-29T02:57:43.549Z,19.00
2022-08-29T03:00:47.174Z,23.40
2022-08-29T03:03:51.407Z,18.00
2022-08-29T03:06:55.903Z,22.40
2022-08-29T03:09:59.299Z,19.00
2022-08-29T03:13:04.488Z,34.00
2022-08-29T03:16:07.790Z,26.00
2022-08-29T03:19:11.161Z,22.80
2022-08-29T03:22:14.485Z,30.00
2022-08-29T03:25:18.738Z,27.50
2022-08-29T03:28:23.547Z,39.50
2022-08-29T03:31:26.974Z,33.80
2022-08-29T03:34:30.950Z,25.00
2022-08-29T03:37:34.460Z,28.00
2022-08-29T03:40:37.909Z,21.60
2022-08-29T03:43:42.561Z,32.00
2022-08-29T03:46:45.837Z,32.00
2022-08-29T03:49:50.476Z,32.00
2022-08-29T03:52:53.754Z,35.60
2022-08-29T03:55:57.040Z,25.20
2022-08-29T03:59:02.197Z,36.40
2022-08-29T04:02:05.724Z,30.00
2022-08-29T04:05:10.177Z,34.33
2022-08-29T04:08:13.723Z,40.60
2022-08-29T04:11:22.045Z,33.00
2022-08-29T04:14:27.074Z,36.20
2022-08-29T04:17:30.373Z,35.00
2022-08-29T04:20:37.336Z,31.50
2022-08-29T04:23:41.714Z,38.60
2022-08-29T04:26:45.018Z,40.00
2022-08-29T04:29:50.104Z,41.00
2022-08-29T04:32:53.832Z,38.00
2022-08-29T04:35:57.236Z,36.00
2022-08-29T04:39:00.728Z,35.25
2022-08-29T04:42:04.316Z,35.00
2022-08-29T04:45:12.495Z,34.00
2022-08-29T04:48:16.652Z,43.60
2022-08-29T04:51:20.404Z,40.00
2022-08-29T04:54:23.672Z,41.40
2022-08-29T04:57:27.041Z,40.75
2022-08-29T05:00:32.395Z,38.40
2022-08-29T05:03:36.507Z,40.20
2022-08-29T05:06:40.051Z,40.00
2022-08-29T05:09:43.331Z,39.20
2022-08-29T05:13:00.812Z,40.00
2022-08-29T05:16:08.389Z,42.50
2022-08-29T05:19:13.109Z,45.00
2022-08-29T05:22:20.170Z,43.00
2022-08-29T05:25:24.000Z,39.00
2022-08-29T05:28:28.185Z,39.40
2022-08-29T05:31:33.037Z,36.50
2022-08-29T05:34:36.916Z,38.00
2022-08-29T05:37:40.237Z,34.00
2022-08-29T05:40:44.194Z,37.80
2022-08-29T05:43:47.485Z,42.40
2022-08-29T05:46:52.792Z,42.00
2022-08-29T05:49:56.109Z,38.80
2022-08-29T05:52:59.433Z,38.00
2022-08-29T05:56:03.300Z,40.40
2022-08-29T05:59:06.796Z,39.00
2022-08-29T06:02:12.646Z,40.00
2022-08-29T06:05:16.116Z,38.00
2022-08-29T06:08:20.074Z,39.25
2022-08-29T06:11:25.688Z,38.00
2022-08-29T06:14:28.998Z,41.60
2022-08-29T06:17:35.107Z,40.60
2022-08-29T06:20:39.550Z,31.60
2022-08-29T06:23:45.185Z,34.00
2022-08-29T06:26:48.487Z,40.00
2022-08-29T06:29:51.759Z,38.00
2022-08-29T06:32:56.430Z,36.20
2022-08-29T06:35:59.792Z,40.25
2022-08-29T06:39:07.136Z,40.60
2022-08-29T06:42:10.619Z,42.20
2022-08-29T06:45:15.276Z,29.40
2022-08-29T06:48:20.058Z,36.00
2022-08-29T06:51:23.623Z,34.00
2022-08-29T06:54:29.457Z,33.00
2022-08-29T06:57:33.140Z,35.00
2022-08-29T07:00:36.412Z,41.00
2022-08-29T07:03:41.520Z,32.00
2022-08-29T07:06:45.556Z,41.40
2022-08-29T07:09:48.772Z,35.75
2022-08-29T07:12:52.918Z,41.40
2022-08-29T07:15:56.280Z,30.40
2022-08-29T07:19:02.291Z,40.00
2022-08-29T07:22:05.612Z,40.25
2022-08-29T07:25:10.437Z,41.60
2022-08-29T07:28:14.407Z,36.00
2022-08-29T07:31:20.189Z,39.80
2022-08-29T07:34:24.871Z,38.40
2022-08-29T07:37:28.254Z,38.00
2022-08-29T07:40:32.305Z,37.20
2022-08-29T07:43:38.794Z,37.60
2022-08-29T07:46:43.067Z,38.25
2022-08-29T07:49:47.673Z,39.40
2022-08-29T07:52:52.618Z,38.60
2022-08-29T07:55:55.927Z,25.60
2022-08-29T07:59:00.493Z,33.40
2022-08-29T08:02:04.051Z,33.00
2022-08-29T08:05:10.112Z,39.20
2022-08-29T08:08:17.771Z,29.50
2022-08-29T08:11:22.769Z,32.20
2022-08-29T08:14:27.226Z,35.00
2022-08-29T08:17:43.387Z,32.60
2022-08-29T08:20:49.667Z,33.00
2022-08-29T08:23:53.827Z,24.00
2022-08-29T08:26:57.146Z,25.40
2022-08-29T08:30:00.577Z,32.00
2022-08-29T08:33:03.928Z,33.60
2022-08-29T08:36:14.683Z,34.50
2022-08-29T08:39:18.114Z,34.60
2022-08-29T08:42:33.779Z,37.00
2022-08-29T08:45:40.198Z,35.60
2022-08-29T08:48:44.724Z,35.00
2022-08-29T08:51:54.995Z,33.60
2022-08-29T08:55:04.139Z,39.80
2022-08-29T08:58:15.383Z,35.00
2022-08-29T09:01:23.448Z,29.75
2022-08-29T09:04:50.486Z,26.80
2022-08-29T09:08:04.307Z,33.00
2022-08-29T09:11:16.485Z,14.20
2022-08-29T09:14:36.222Z,23.80
2022-08-29T09:17:46.020Z,17.00
2022-08-29T09:20:51.089Z,16.60
2022-08-29T09:23:59.750Z,12.40
2022-08-29T09:27:03.857Z,14.00
2022-08-29T09:30:11.558Z,17.80
2022-08-29T09:33:19.118Z,17.00
2022-08-29T09:36:37.631Z,20.60
2022-08-29T09:39:54.746Z,25.00
2022-08-29T09:43:04.203Z,24.25
2022-08-29T09:46:17.754Z,21.40
2022-08-29T09:49:21.103Z,21.00
2022-08-29T09:52:26.360Z,20.80
2022-08-29T09:55:35.168Z,16.75
2022-08-29T09:58:40.658Z,13.50
2022-08-29T10:01:44.538Z,13.60
2022-08-29T10:04:50.237Z,13.00
2022-08-29T10:07:54.382Z,10.00
2022-08-29T10:11:01.129Z,16.40
2022-08-29T10:14:12.551Z,18.00
2022-08-29T10:17:43.559Z,18.00
2022-08-29T10:20:56.429Z,15.60
2022-08-29T10:24:15.911Z,18.00
2022-08-29T10:27:33.913Z,13.00
2022-08-29T10:30:51.198Z,14.60
2022-08-29T10:34:08.907Z,17.00
2022-08-29T10:37:21.253Z,14.20
2022-08-29T10:40:31.679Z,14.33
2022-08-29T10:43:43.061Z,22.75
2022-08-29T10:47:01.819Z,13.20
2022-08-29T10:50:42.508Z,18.40
2022-08-29T10:53:43.649Z,15.00
2022-08-29T10:56:50.543Z,17.80
2022-08-29T11:00:04.544Z,16.25
2022-08-29T11:03:20.160Z,13.60
2022-08-29T11:06:27.990Z,16.60
2022-08-29T11:09:36.553Z,14.00
2022-08-29T11:12:46.235Z,15.00
2022-08-29T11:16:01.133Z,15.00
2022-08-29T11:19:13.592Z,15.75
2022-08-29T11:22:22.683Z,14.00
2022-08-29T11:25:27.595Z,15.60
2022-08-29T11:28:40.340Z,6.50
2022-08-29T11:31:51.841Z,16.00
2022-08-29T11:35:07.188Z,17.40
2022-08-29T11:38:39.561Z,16.00
2022-08-29T11:41:46.315Z,18.00
2022-08-29T11:44:54.153Z,15.00
2022-08-29T11:48:02.829Z,14.00
2022-08-29T11:51:36.275Z,16.00
2022-08-29T11:55:16.035Z,17.80
2022-08-29T11:58:43.057Z,14.00
2022-08-29T12:02:01.457Z,15.00
2022-08-29T12:05:28.953Z,16.00
2022-08-29T12:08:38.567Z,17.00
2022-08-29T12:12:27.524Z,15.00
2022-08-29T12:15:54.798Z,16.25
2022-08-29T12:19:00.052Z,14.00
2022-08-29T12:22:04.937Z,17.00
2022-08-29T12:25:43.874Z,14.20
2022-08-29T12:28:57.594Z,15.40
2022-08-29T12:32:35.247Z,12.00
2022-08-29T12:36:07.532Z,15.80
2022-08-29T12:39:24.859Z,13.80
2022-08-29T12:42:36.505Z,17.40
2022-08-29T12:45:44.183Z,18.00
2022-08-29T12:48:57.926Z,13.20
2022-08-29T12:52:04.821Z,16.40
2022-08-29T12:55:28.680Z,19.00
2022-08-29T12:58:37.941Z,16.00
2022-08-29T13:01:41.876Z,15.33
2022-08-29T13:04:45.313Z,14.75
2022-08-29T13:07:56.090Z,14.20
2022-08-29T13:11:02.848Z,14.80
2022-08-29T13:14:12.121Z,13.00
2022-08-29T13:17:16.335Z,14.20
2022-08-29T13:20:46.027Z,13.40
2022-08-29T13:24:01.022Z,14.00
2022-08-29T13:27:09.267Z,13.00
2022-08-29T13:30:22.726Z,19.25
2022-08-29T13:33:34.710Z,23.00
2022-08-29T13:36:42.386Z,20.80
2022-08-29T13:39:47.991Z,30.00
2022-08-29T13:42:52.632Z,23.00
2022-08-29T13:46:09.718Z,16.80
2022-08-29T13:49:20.835Z,15.67
2022-08-29T13:52:24.674Z,13.40
2022-08-29T13:55:35.109Z,12.50
2022-08-29T13:58:39.873Z,16.00
2022-08-29T14:05:07.718Z,12.00
2022-08-29T14:08:13.027Z,13.00
2022-08-29T14:11:16.872Z,13.00
2022-08-29T14:14:21.742Z,13.50
2022-08-29T14:17:25.794Z,12.00
2022-08-29T14:20:29.111Z,12.00
2022-08-29T14:23:32.427Z,18.60
2022-08-29T14:26:35.728Z,16.40
2022-08-29T14:29:40.792Z,14.00
2022-08-29T14:32:44.141Z,11.00
2022-08-29T14:35:47.869Z,12.00
2022-08-29T14:38:51.374Z,13.00
2022-08-29T14:41:55.032Z,12.00
2022-08-29T14:44:59.698Z,13.00
2022-08-29T14:48:03.322Z,13.00
2022-08-29T14:51:06.985Z,11.25
2022-08-29T14:54:10.730Z,11.00
2022-08-29T14:57:14.322Z,12.50
2022-08-29T15:00:22.944Z,12.50
2022-08-29T15:03:26.545Z,12.25
2022-08-29T15:06:29.993Z,10.00
2022-08-29T15:09:33.361Z,11.00
2022-08-29T15:12:36.987Z,14.00
2022-08-29T15:15:41.750Z,14.00
2022-08-29T15:22:09.354Z,10.60
2022-08-29T15:25:12.960Z,11.00
2022-08-29T15:28:16.430Z,11.00
2022-08-29T15:31:23.815Z,18.75
2022-08-29T15:34:27.523Z,19.60
2022-08-29T15:37:30.859Z,13.40
2022-08-29T15:40:34.504Z,11.25
2022-08-29T15:43:37.928Z,11.00
2022-08-29T15:46:50.362Z,10.75
2022-08-29T15:49:54.385Z,11.00
2022-08-29T15:52:57.933Z,11.40
2022-08-29T15:56:01.450Z,14.60
2022-08-29T15:59:07.267Z,12.60
2022-08-29T16:02:12.529Z,11.60
2022-08-29T16:05:15.834Z,14.00
2022-08-29T16:08:19.279Z,16.40
2022-08-29T16:11:25.680Z,15.00
2022-08-29T16:14:58.049Z,31.40
2022-08-29T16:17:53.790Z,28.00
2022-08-29T16:20:57.249Z,23.00
2022-08-29T16:24:01.465Z,30.00
2022-08-29T16:27:05.726Z,21.00
2022-08-29T16:30:11.044Z,18.00
2022-08-29T16:33:15.689Z,25.00
2022-08-29T16:36:19.778Z,30.67
2022-08-29T16:39:23.177Z,29.40
2022-08-29T16:42:30.342Z,28.60
2022-08-29T16:45:34.987Z,31.00
2022-08-29T16:48:40.188Z,32.75
2022-08-29T16:51:43.528Z,24.60
2022-08-29T16:54:46.846Z,30.00
2022-08-29T16:58:03.979Z,26.40
2022-08-29T17:01:07.727Z,16.00
2022-08-29T17:04:15.275Z,24.60
2022-08-29T17:07:18.562Z,26.80
2022-08-29T17:10:20.877Z,22.00
2022-08-29T17:13:22.935Z,30.00
2022-08-29T17:16:27.089Z,26.60
2022-08-29T17:19:33.190Z,19.60
2022-08-29T17:22:37.192Z,20.80
2022-08-29T17:25:41.128Z,19.00
2022-08-29T17:28:45.833Z,25.40
2022-08-29T17:31:49.514Z,28.80
2022-08-29T17:34:54.309Z,30.75
2022-08-29T17:37:57.910Z,30.00
2022-08-29T17:41:05.196Z,32.00
2022-08-29T17:44:18.760Z,32.00
2022-08-29T17:47:22.029Z,26.25
2022-08-29T17:50:27.290Z,31.00
2022-08-29T17:53:32.688Z,31.00
2022-08-29T17:56:44.445Z,31.20
2022-08-29T17:59:48.092Z,35.00
2022-08-29T18:02:51.478Z,33.50
2022-08-29T18:05:56.208Z,37.00
2022-08-29T18:08:59.891Z,33.00
2022-08-29T18:12:03.761Z,33.00
2022-08-29T18:15:09.353Z,32.40
2022-08-29T18:18:12.782Z,28.60
2022-08-29T18:21:18.570Z,32.20
2022-08-29T18:24:22.332Z,32.00
2022-08-29T18:27:26.016Z,33.40
2022-08-29T18:30:29.487Z,32.60
2022-08-29T18:33:56.887Z,30.00
2022-08-29T18:36:58.481Z,33.00
2022-08-29T18:40:02.163Z,26.80
2022-08-29T18:43:05.619Z,28.00
2022-08-29T18:46:09.565Z,32.40
2022-08-29T18:49:13.074Z,31.00
2022-08-29T18:52:17.825Z,30.60
2022-08-29T18:55:22.889Z,25.00
2022-08-29T18:58:29.546Z,33.00
2022-08-29T19:01:33.785Z,30.40
2022-08-29T19:04:37.156Z,32.75
2022-08-29T19:07:41.784Z,33.40
2022-08-29T19:10:46.317Z,33.40
2022-08-29T19:13:52.451Z,35.00
2022-08-29T19:17:00.652Z,31.50
2022-08-29T19:20:24.915Z,33.00
2022-08-29T19:23:35.450Z,34.60
2022-08-29T19:26:40.143Z,34.00
2022-08-29T19:29:43.437Z,33.00
2022-08-29T19:32:52.012Z,36.00
2022-08-29T19:35:56.358Z,32.00
2022-08-29T19:39:01.557Z,34.00
2022-08-29T19:42:05.083Z,33.40
2022-08-29T19:45:11.237Z,31.60
2022-08-29T19:48:15.567Z,35.80
2022-08-29T19:51:21.284Z,36.40
2022-08-29T19:54:26.088Z,30.00
2022-08-29T19:57:29.342Z,35.00
2022-08-29T20:00:33.981Z,35.00
2022-08-29T20:03:39.480Z,33.00
2022-08-29T20:06:44.005Z,35.40
2022-08-29T20:09:50.073Z,36.00
2022-08-29T20:12:55.121Z,35.60
2022-08-29T20:15:58.406Z,33.40
2022-08-29T20:19:04.849Z,33.50
2022-08-29T20:22:10.657Z,34.50
2022-08-29T20:25:15.953Z,32.20
2022-08-29T20:28:19.614Z,33.00
2022-08-29T20:31:23.592Z,36.00
2022-08-29T20:34:29.418Z,36.00
2022-08-29T20:37:32.079Z,35.00
2022-08-29T20:40:39.618Z,35.20
2022-08-29T20:43:42.981Z,36.80
2022-08-29T20:46:46.430Z,36.00
2022-08-29T20:49:50.961Z,31.25
2022-08-29T20:52:55.116Z,35.00
2022-08-29T20:56:00.016Z,34.60
2022-08-29T20:59:03.421Z,38.00
2022-08-29T21:02:07.760Z,37.00
2022-08-29T21:05:29.337Z,37.00
2022-08-29T21:08:33.813Z,39.00
2022-08-29T21:11:38.551Z,36.60
2022-08-29T21:14:41.937Z,40.20
2022-08-29T21:17:45.192Z,37.00
2022-08-29T21:20:53.740Z,35.40
2022-08-29T21:23:58.589Z,35.00
2022-08-29T21:27:03.531Z,34.20
2022-08-29T21:30:07.603Z,40.40
2022-08-29T21:33:11.559Z,36.00
2022-08-29T21:36:18.166Z,38.00
2022-08-29T21:39:28.947Z,39.00
2022-08-29T21:42:34.647Z,39.50
2022-08-29T21:45:38.232Z,39.00
2022-08-29T21:48:41.497Z,37.50
2022-08-29T21:51:45.742Z,38.00
2022-08-29T21:54:50.062Z,39.00
2022-08-29T21:58:00.564Z,34.75
2022-08-29T22:01:04.178Z,38.00
2022-08-29T22:04:10.375Z,38.00
2022-08-29T22:07:13.633Z,39.00
2022-08-29T22:10:20.296Z,38.00
2022-08-29T22:13:25.363Z,38.40
2022-08-29T22:16:30.784Z,35.60
2022-08-29T22:19:34.944Z,40.00
2022-08-29T22:22:38.808Z,36.00
2022-08-29T22:25:42.211Z,38.50
2022-08-29T22:28:47.583Z,38.60
2022-08-29T22:31:50.809Z,40.00
2022-08-29T22:34:54.389Z,37.75
2022-08-29T22:37:57.714Z,36.00
2022-08-29T22:41:01.213Z,40.00
2022-08-29T22:47:34.260Z,40.00
2022-08-29T22:50:38.076Z,42.00
2022-08-29T22:53:41.533Z,40.00
2022-08-29T22:56:46.253Z,41.00
2022-08-29T22:59:51.302Z,40.00
2022-08-29T23:02:55.334Z,40.00
2022-08-29T23:05:58.983Z,36.60
2022-08-29T23:09:02.382Z,38.50
2022-08-29T23:12:06.898Z,42.40
2022-08-29T23:15:14.908Z,41.00
2022-08-29T23:18:18.384Z,39.00
2022-08-29T23:21:23.195Z,42.50
2022-08-29T23:24:26.864Z,43.40
2022-08-29T23:27:31.877Z,41.00
2022-08-29T23:30:36.793Z,42.00
2022-08-29T23:33:40.099Z,41.60
2022-08-29T23:36:43.649Z,38.00
2022-08-29T23:39:47.308Z,45.00
2022-08-29T23:42:50.975Z,40.00
2022-08-29T23:45:56.228Z,44.00
2022-08-29T23:49:01.081Z,42.20
2022-08-29T23:52:04.747Z,40.00
2022-08-29T23:55:09.594Z,42.00
2022-08-29T23:58:13.426Z,43.80
